sensor_id;sensor_type;location;lat;lon;timestamp;pressure;altitude;pressure_sealevel;temperature;humidity
37068;BME280;22982;42.848;25.468;2022-08-21T00:03:11;95706.59;;;20.03;100.00
37068;BME280;22982;42.848;25.468;2022-08-21T00:08:13;95711.66;;;19.64;100.00
37068;BME280;22982;42.848;25.468;2022-08-21T00:13:18;95697.09;;;19.76;100.00
37068;BME280;22982;42.848;25.468;2022-08-21T00:18:23;95675.59;;;19.61;100.00
37068;BME280;22982;42.848;25.468;2022-08-21T00:23:25;95655.16;;;19.54;100.00
37068;BME280;22982;42.848;25.468;2022-08-21T00:28:28;95649.81;;;19.54;100.00
37068;BME280;22982;42.848;25.468;2022-08-21T00:33:31;95633.38;;;19.66;100.00
37068;BME280;22982;42.848;25.468;2022-08-21T00:38:33;95602.47;;;19.57;100.00
37068;BME280;22982;42.848;25.468;2022-08-21T00:43:37;95586.84;;;19.54;100.00
37068;BME280;22982;42.848;25.468;2022-08-21T00:48:40;95575.03;;;19.65;100.00
37068;BME280;22982;42.848;25.468;2022-08-21T00:53:43;95556.91;;;19.52;100.00
37068;BME280;22982;42.848;25.468;2022-08-21T00:58:55;95551.25;;;19.30;100.00
37068;BME280;22982;42.848;25.468;2022-08-21T01:03:59;95540.63;;;19.30;100.00
37068;BME280;22982;42.848;25.468;2022-08-21T01:09:02;95530.31;;;19.19;100.00
37068;BME280;22982;42.848;25.468;2022-08-21T01:14:04;95517.34;;;19.16;100.00
37068;BME280;22982;42.848;25.468;2022-08-21T01:19:08;95528.31;;;19.29;100.00
37068;BME280;22982;42.848;25.468;2022-08-21T01:24:13;95538.31;;;19.36;100.00
37068;BME280;22982;42.848;25.468;2022-08-21T01:29:36;95545.13;;;19.30;100.00
37068;BME280;22982;42.848;25.468;2022-08-21T01:34:41;95545.59;;;19.17;100.00
37068;BME280;22982;42.848;25.468;2022-08-21T01:39:44;95541.94;;;19.18;100.00
37068;BME280;22982;42.848;25.468;2022-08-21T01:44:47;95519.84;;;19.34;100.00
37068;BME280;22982;42.848;25.468;2022-08-21T01:49:49;95516.53;;;19.16;100.00
37068;BME280;22982;42.848;25.468;2022-08-21T01:54:52;95506.72;;;19.32;100.00
37068;BME280;22982;42.848;25.468;2022-08-21T01:59:56;95502.44;;;19.31;100.00
37068;BME280;22982;42.848;25.468;2022-08-21T02:04:58;95493.59;;;19.31;100.00
37068;BME280;22982;42.848;25.468;2022-08-21T02:10:01;95480.50;;;19.21;100.00
37068;BME280;22982;42.848;25.468;2022-08-21T02:15:05;95494.75;;;19.37;100.00
37068;BME280;22982;42.848;25.468;2022-08-21T02:20:09;95493.09;;;19.27;100.00
37068;BME280;22982;42.848;25.468;2022-08-21T02:25:13;95479.47;;;19.14;100.00
37068;BME280;22982;42.848;25.468;2022-08-21T02:30:21;95492.09;;;19.04;100.00
37068;BME280;22982;42.848;25.468;2022-08-21T02:35:24;95497.25;;;19.13;100.00
37068;BME280;22982;42.848;25.468;2022-08-21T02:40:29;95492.44;;;19.17;100.00
37068;BME280;22982;42.848;25.468;2022-08-21T02:45:33;95480.63;;;19.03;100.00
37068;BME280;22982;42.848;25.468;2022-08-21T02:50:41;95475.50;;;19.10;100.00
37068;BME280;22982;42.848;25.468;2022-08-21T02:55:45;95484.91;;;18.88;100.00
37068;BME280;22982;42.848;25.468;2022-08-21T03:00:49;95487.75;;;18.86;100.00
37068;BME280;22982;42.848;25.468;2022-08-21T03:05:52;95500.38;;;18.92;100.00
37068;BME280;22982;42.848;25.468;2022-08-21T03:10:55;95502.38;;;18.90;100.00
37068;BME280;22982;42.848;25.468;2022-08-21T03:15:57;95505.31;;;18.79;100.00
37068;BME280;22982;42.848;25.468;2022-08-21T03:21:01;95507.50;;;18.84;100.00
37068;BME280;22982;42.848;25.468;2022-08-21T03:26:03;95513.00;;;18.90;100.00
37068;BME280;22982;42.848;25.468;2022-08-21T03:31:06;95516.34;;;19.09;100.00
37068;BME280;22982;42.848;25.468;2022-08-21T03:36:09;95539.25;;;19.02;100.00
37068;BME280;22982;42.848;25.468;2022-08-21T03:41:11;95526.72;;;18.78;100.00
37068;BME280;22982;42.848;25.468;2022-08-21T03:46:14;95528.34;;;18.70;100.00
37068;BME280;22982;42.848;25.468;2022-08-21T03:51:16;95540.06;;;18.94;100.00
37068;BME280;22982;42.848;25.468;2022-08-21T03:56:18;95531.16;;;18.77;100.00
37068;BME280;22982;42.848;25.468;2022-08-21T04:01:21;95541.13;;;18.67;100.00
37068;BME280;22982;42.848;25.468;2022-08-21T04:06:23;95542.59;;;18.69;100.00
37068;BME280;22982;42.848;25.468;2022-08-21T04:11:26;95532.91;;;18.86;100.00
37068;BME280;22982;42.848;25.468;2022-08-21T04:16:29;95539.78;;;18.71;100.00
37068;BME280;22982;42.848;25.468;2022-08-21T04:21:31;95534.13;;;18.66;100.00
37068;BME280;22982;42.848;25.468;2022-08-21T04:26:34;95570.25;;;18.93;100.00
37068;BME280;22982;42.848;25.468;2022-08-21T04:31:37;95555.84;;;19.04;100.00
37068;BME280;22982;42.848;25.468;2022-08-21T04:36:39;95570.81;;;19.13;100.00
37068;BME280;22982;42.848;25.468;2022-08-21T04:41:42;95566.88;;;19.34;100.00
37068;BME280;22982;42.848;25.468;2022-08-21T04:46:49;95570.19;;;19.44;100.00
37068;BME280;22982;42.848;25.468;2022-08-21T04:51:51;95577.88;;;19.72;100.00
37068;BME280;22982;42.848;25.468;2022-08-21T04:56:57;95592.16;;;19.62;100.00
37068;BME280;22982;42.848;25.468;2022-08-21T05:02:02;95596.81;;;19.52;100.00
37068;BME280;22982;42.848;25.468;2022-08-21T05:07:10;95600.34;;;19.77;100.00
37068;BME280;22982;42.848;25.468;2022-08-21T05:12:14;95609.81;;;19.96;100.00
37068;BME280;22982;42.848;25.468;2022-08-21T05:17:17;95598.84;;;20.07;100.00
37068;BME280;22982;42.848;25.468;2022-08-21T05:22:23;95601.13;;;20.27;100.00
37068;BME280;22982;42.848;25.468;2022-08-21T05:27:32;95591.47;;;20.34;100.00
37068;BME280;22982;42.848;25.468;2022-08-21T05:32:35;95604.22;;;21.11;100.00
37068;BME280;22982;42.848;25.468;2022-08-21T05:37:38;95604.66;;;21.54;100.00
37068;BME280;22982;42.848;25.468;2022-08-21T05:42:40;95622.03;;;21.96;100.00
37068;BME280;22982;42.848;25.468;2022-08-21T05:47:42;95593.91;;;22.24;100.00
37068;BME280;22982;42.848;25.468;2022-08-21T05:52:45;95602.00;;;22.68;100.00
37068;BME280;22982;42.848;25.468;2022-08-21T05:57:47;95613.88;;;22.96;100.00
37068;BME280;22982;42.848;25.468;2022-08-21T06:02:51;95605.69;;;22.38;100.00
37068;BME280;22982;42.848;25.468;2022-08-21T06:07:54;95595.47;;;22.56;100.00
37068;BME280;22982;42.848;25.468;2022-08-21T06:12:56;95614.44;;;23.21;100.00
37068;BME280;22982;42.848;25.468;2022-08-21T06:18:00;95597.88;;;24.12;99.54
37068;BME280;22982;42.848;25.468;2022-08-21T06:23:07;95599.00;;;24.52;89.80
37068;BME280;22982;42.848;25.468;2022-08-21T06:28:10;95597.59;;;24.91;90.38
37068;BME280;22982;42.848;25.468;2022-08-21T06:33:13;95600.88;;;26.36;80.39
37068;BME280;22982;42.848;25.468;2022-08-21T06:38:28;95596.72;;;26.74;74.88
37068;BME280;22982;42.848;25.468;2022-08-21T06:51:04;95581.38;;;26.81;76.33
37068;BME280;22982;42.848;25.468;2022-08-21T06:56:08;95565.16;;;27.08;79.28
37068;BME280;22982;42.848;25.468;2022-08-21T07:01:10;95586.81;;;26.48;84.24
37068;BME280;22982;42.848;25.468;2022-08-21T07:06:12;95580.22;;;26.44;83.68
37068;BME280;22982;42.848;25.468;2022-08-21T07:11:20;95585.50;;;29.55;69.22
37068;BME280;22982;42.848;25.468;2022-08-21T07:16:23;95563.00;;;31.79;59.42
37068;BME280;22982;42.848;25.468;2022-08-21T07:21:26;95559.81;;;33.23;53.16
37068;BME280;22982;42.848;25.468;2022-08-21T07:26:28;95551.97;;;33.49;49.96
37068;BME280;22982;42.848;25.468;2022-08-21T07:31:30;95548.09;;;33.17;46.88
37068;BME280;22982;42.848;25.468;2022-08-21T07:36:33;95526.44;;;33.06;47.53
37068;BME280;22982;42.848;25.468;2022-08-21T07:41:35;95512.50;;;32.58;50.46
37068;BME280;22982;42.848;25.468;2022-08-21T07:46:39;95540.47;;;32.24;50.88
37068;BME280;22982;42.848;25.468;2022-08-21T07:51:41;95520.72;;;31.21;56.27
37068;BME280;22982;42.848;25.468;2022-08-21T07:56:44;95525.75;;;30.06;61.82
37068;BME280;22982;42.848;25.468;2022-08-21T08:01:46;95527.38;;;29.83;68.92
37068;BME280;22982;42.848;25.468;2022-08-21T08:06:49;95529.72;;;29.91;60.63
37068;BME280;22982;42.848;25.468;2022-08-21T08:11:51;95507.69;;;30.42;61.84
37068;BME280;22982;42.848;25.468;2022-08-21T08:16:55;95526.00;;;29.74;60.44
37068;BME280;22982;42.848;25.468;2022-08-21T08:21:58;95515.03;;;29.45;61.94
37068;BME280;22982;42.848;25.468;2022-08-21T08:27:01;95478.16;;;28.72;63.27
37068;BME280;22982;42.848;25.468;2022-08-21T08:32:05;95509.25;;;28.74;75.39
37068;BME280;22982;42.848;25.468;2022-08-21T08:37:09;95503.66;;;29.06;67.48
37068;BME280;22982;42.848;25.468;2022-08-21T08:42:16;95504.97;;;29.04;60.40
37068;BME280;22982;42.848;25.468;2022-08-21T08:47:47;95492.03;;;29.54;55.41
37068;BME280;22982;42.848;25.468;2022-08-21T08:53:00;95489.44;;;30.37;54.69
37068;BME280;22982;42.848;25.468;2022-08-21T08:58:19;95474.47;;;31.39;48.46
37068;BME280;22982;42.848;25.468;2022-08-21T09:03:24;95474.72;;;31.66;49.63
37068;BME280;22982;42.848;25.468;2022-08-21T09:29:47;95473.00;;;30.91;56.55
37068;BME280;22982;42.848;25.468;2022-08-21T09:35:01;95458.34;;;31.16;48.92
37068;BME280;22982;42.848;25.468;2022-08-21T09:40:36;95459.81;;;30.54;59.30
37068;BME280;22982;42.848;25.468;2022-08-21T09:45:41;95459.56;;;29.96;52.59
37068;BME280;22982;42.848;25.468;2022-08-21T09:50:45;95451.00;;;29.76;57.86
37068;BME280;22982;42.848;25.468;2022-08-21T09:55:58;95478.25;;;30.10;58.19
37068;BME280;22982;42.848;25.468;2022-08-21T10:01:26;95460.63;;;30.19;58.40
37068;BME280;22982;42.848;25.468;2022-08-21T10:06:28;95468.44;;;29.73;60.77
37068;BME280;22982;42.848;25.468;2022-08-21T10:11:32;95470.97;;;29.45;60.60
37068;BME280;22982;42.848;25.468;2022-08-21T10:22:29;95476.13;;;29.34;62.94
37068;BME280;22982;42.848;25.468;2022-08-21T10:33:04;95476.34;;;28.84;64.42
37068;BME280;22982;42.848;25.468;2022-08-21T11:00:06;95444.72;;;28.91;64.72
37068;BME280;22982;42.848;25.468;2022-08-21T11:05:21;95416.34;;;28.70;66.83
37068;BME280;22982;42.848;25.468;2022-08-21T11:10:29;95448.72;;;29.00;64.78
37068;BME280;22982;42.848;25.468;2022-08-21T11:26:22;95422.50;;;28.40;66.61
37068;BME280;22982;42.848;25.468;2022-08-21T11:31:39;95440.13;;;28.92;65.08
37068;BME280;22982;42.848;25.468;2022-08-21T11:36:51;95418.47;;;28.98;63.40
37068;BME280;22982;42.848;25.468;2022-08-21T11:42:24;95405.34;;;29.44;62.67
37068;BME280;22982;42.848;25.468;2022-08-21T11:47:49;95396.47;;;29.79;58.63
37068;BME280;22982;42.848;25.468;2022-08-21T11:53:07;95373.56;;;29.82;59.63
37068;BME280;22982;42.848;25.468;2022-08-21T11:58:18;95379.28;;;29.73;60.46
37068;BME280;22982;42.848;25.468;2022-08-21T12:03:42;95342.75;;;30.18;56.08
37068;BME280;22982;42.848;25.468;2022-08-21T12:09:07;95361.19;;;30.21;55.08
37068;BME280;22982;42.848;25.468;2022-08-21T12:29:35;95366.22;;;30.29;53.76
37068;BME280;22982;42.848;25.468;2022-08-21T12:34:50;95346.19;;;29.54;56.31
37068;BME280;22982;42.848;25.468;2022-08-21T12:39:57;95383.81;;;28.47;59.20
37068;BME280;22982;42.848;25.468;2022-08-21T12:50:41;95384.69;;;28.10;55.41
37068;BME280;22982;42.848;25.468;2022-08-21T12:55:50;95389.63;;;28.13;54.51
37068;BME280;22982;42.848;25.468;2022-08-21T13:01:17;95400.25;;;27.83;55.69
37068;BME280;22982;42.848;25.468;2022-08-21T13:06:22;95380.19;;;27.03;57.98
37068;BME280;22982;42.848;25.468;2022-08-21T13:11:28;95380.00;;;26.53;58.39
37068;BME280;22982;42.848;25.468;2022-08-21T13:16:34;95396.94;;;26.02;60.74
37068;BME280;22982;42.848;25.468;2022-08-21T13:21:43;95420.94;;;25.50;63.58
37068;BME280;22982;42.848;25.468;2022-08-21T13:26:48;95444.44;;;25.34;64.64
37068;BME280;22982;42.848;25.468;2022-08-21T13:31:54;95435.31;;;25.09;71.01
37068;BME280;22982;42.848;25.468;2022-08-21T13:37:00;95410.97;;;23.72;84.64
37068;BME280;22982;42.848;25.468;2022-08-21T13:42:10;95468.94;;;22.79;96.13
37068;BME280;22982;42.848;25.468;2022-08-21T13:47:15;95444.50;;;22.15;100.00
37068;BME280;22982;42.848;25.468;2022-08-21T13:52:24;95452.63;;;21.54;100.00
37068;BME280;22982;42.848;25.468;2022-08-21T13:57:33;95461.75;;;21.37;100.00
37068;BME280;22982;42.848;25.468;2022-08-21T14:09:41;95469.56;;;21.15;100.00
37068;BME280;22982;42.848;25.468;2022-08-21T14:14:45;95450.22;;;21.21;100.00
37068;BME280;22982;42.848;25.468;2022-08-21T14:19:48;95449.34;;;21.44;100.00
37068;BME280;22982;42.848;25.468;2022-08-21T14:25:02;95449.81;;;21.71;100.00
37068;BME280;22982;42.848;25.468;2022-08-21T14:30:14;95445.34;;;22.31;100.00
37068;BME280;22982;42.848;25.468;2022-08-21T14:35:18;95442.34;;;22.26;100.00
37068;BME280;22982;42.848;25.468;2022-08-21T14:40:25;95424.84;;;22.53;100.00
37068;BME280;22982;42.848;25.468;2022-08-21T14:45:29;95409.50;;;21.66;100.00
37068;BME280;22982;42.848;25.468;2022-08-21T14:50:32;95395.16;;;21.67;100.00
37068;BME280;22982;42.848;25.468;2022-08-21T14:55:35;95406.66;;;21.82;100.00
37068;BME280;22982;42.848;25.468;2022-08-21T15:01:01;95415.06;;;21.79;100.00
37068;BME280;22982;42.848;25.468;2022-08-21T15:06:07;95400.13;;;21.85;100.00
37068;BME280;22982;42.848;25.468;2022-08-21T15:11:13;95421.00;;;22.11;100.00
37068;BME280;22982;42.848;25.468;2022-08-21T15:16:38;95411.72;;;22.07;100.00
37068;BME280;22982;42.848;25.468;2022-08-21T15:21:40;95414.75;;;22.04;100.00
37068;BME280;22982;42.848;25.468;2022-08-21T15:26:43;95405.38;;;22.38;100.00
37068;BME280;22982;42.848;25.468;2022-08-21T15:31:54;95409.06;;;22.07;100.00
37068;BME280;22982;42.848;25.468;2022-08-21T15:36:57;95399.75;;;21.73;100.00
37068;BME280;22982;42.848;25.468;2022-08-21T15:42:00;95394.78;;;21.70;100.00
37068;BME280;22982;42.848;25.468;2022-08-21T15:47:21;95390.38;;;21.77;100.00
37068;BME280;22982;42.848;25.468;2022-08-21T15:52:24;95395.91;;;21.75;100.00
37068;BME280;22982;42.848;25.468;2022-08-21T15:57:27;95395.09;;;21.90;100.00
37068;BME280;22982;42.848;25.468;2022-08-21T16:02:31;95393.00;;;22.22;100.00
37068;BME280;22982;42.848;25.468;2022-08-21T16:07:33;95384.81;;;22.23;100.00
37068;BME280;22982;42.848;25.468;2022-08-21T16:12:40;95378.94;;;22.43;100.00
37068;BME280;22982;42.848;25.468;2022-08-21T16:17:45;95385.88;;;22.59;100.00
37068;BME280;22982;42.848;25.468;2022-08-21T16:22:55;95353.91;;;22.29;100.00
37068;BME280;22982;42.848;25.468;2022-08-21T16:28:00;95370.75;;;22.29;100.00
37068;BME280;22982;42.848;25.468;2022-08-21T16:33:04;95382.50;;;22.50;100.00
37068;BME280;22982;42.848;25.468;2022-08-21T16:38:07;95362.00;;;22.21;100.00
37068;BME280;22982;42.848;25.468;2022-08-21T16:43:12;95366.06;;;22.02;100.00
37068;BME280;22982;42.848;25.468;2022-08-21T16:48:14;95373.72;;;22.05;100.00
37068;BME280;22982;42.848;25.468;2022-08-21T16:53:16;95377.56;;;22.17;100.00
37068;BME280;22982;42.848;25.468;2022-08-21T16:58:25;95350.34;;;21.92;100.00
37068;BME280;22982;42.848;25.468;2022-08-21T17:03:31;95359.53;;;21.89;100.00
37068;BME280;22982;42.848;25.468;2022-08-21T17:08:36;95353.47;;;21.66;100.00
37068;BME280;22982;42.848;25.468;2022-08-21T17:13:38;95349.34;;;21.48;100.00
37068;BME280;22982;42.848;25.468;2022-08-21T17:18:41;95367.78;;;21.35;100.00
37068;BME280;22982;42.848;25.468;2022-08-21T17:23:43;95374.19;;;21.49;100.00
37068;BME280;22982;42.848;25.468;2022-08-21T17:28:46;95379.00;;;21.30;100.00
37068;BME280;22982;42.848;25.468;2022-08-21T17:33:52;95380.56;;;21.39;100.00
37068;BME280;22982;42.848;25.468;2022-08-21T17:38:57;95379.06;;;21.60;100.00
37068;BME280;22982;42.848;25.468;2022-08-21T17:44:08;95407.88;;;21.41;100.00
37068;BME280;22982;42.848;25.468;2022-08-21T17:49:16;95398.03;;;21.42;100.00
37068;BME280;22982;42.848;25.468;2022-08-21T17:54:18;95385.44;;;20.98;100.00
37068;BME280;22982;42.848;25.468;2022-08-21T17:59:23;95412.00;;;21.06;100.00
37068;BME280;22982;42.848;25.468;2022-08-21T18:04:27;95407.09;;;21.18;100.00
37068;BME280;22982;42.848;25.468;2022-08-21T18:09:30;95392.19;;;21.09;100.00
37068;BME280;22982;42.848;25.468;2022-08-21T18:14:34;95421.06;;;20.97;100.00
37068;BME280;22982;42.848;25.468;2022-08-21T18:19:38;95392.88;;;20.79;100.00
37068;BME280;22982;42.848;25.468;2022-08-21T18:24:50;95404.38;;;21.03;100.00
37068;BME280;22982;42.848;25.468;2022-08-21T18:29:54;95422.47;;;21.31;100.00
37068;BME280;22982;42.848;25.468;2022-08-21T18:34:59;95391.94;;;20.72;100.00
37068;BME280;22982;42.848;25.468;2022-08-21T18:40:04;95419.28;;;20.26;100.00
37068;BME280;22982;42.848;25.468;2022-08-21T18:45:11;95425.31;;;20.52;100.00
37068;BME280;22982;42.848;25.468;2022-08-21T18:50:18;95425.28;;;20.60;100.00
37068;BME280;22982;42.848;25.468;2022-08-21T18:55:22;95424.06;;;20.39;100.00
37068;BME280;22982;42.848;25.468;2022-08-21T19:00:28;95415.38;;;20.45;100.00
37068;BME280;22982;42.848;25.468;2022-08-21T19:05:31;95403.13;;;20.59;100.00
37068;BME280;22982;42.848;25.468;2022-08-21T19:11:11;95419.41;;;20.73;100.00
37068;BME280;22982;42.848;25.468;2022-08-21T19:16:40;95400.59;;;20.74;100.00
37068;BME280;22982;42.848;25.468;2022-08-21T19:22:13;95411.78;;;20.93;100.00
37068;BME280;22982;42.848;25.468;2022-08-21T19:27:18;95419.06;;;20.99;100.00
37068;BME280;22982;42.848;25.468;2022-08-21T19:32:23;95405.03;;;20.51;100.00
37068;BME280;22982;42.848;25.468;2022-08-21T19:37:26;95431.00;;;20.49;100.00
37068;BME280;22982;42.848;25.468;2022-08-21T19:42:31;95436.69;;;20.77;100.00
37068;BME280;22982;42.848;25.468;2022-08-21T19:47:34;95426.06;;;20.37;100.00
37068;BME280;22982;42.848;25.468;2022-08-21T19:52:37;95428.81;;;20.13;100.00
37068;BME280;22982;42.848;25.468;2022-08-21T19:57:52;95441.56;;;20.34;100.00
37068;BME280;22982;42.848;25.468;2022-08-21T20:02:55;95431.94;;;20.24;100.00
37068;BME280;22982;42.848;25.468;2022-08-21T20:07:57;95428.69;;;20.06;100.00
37068;BME280;22982;42.848;25.468;2022-08-21T20:12:59;95444.78;;;20.13;100.00
37068;BME280;22982;42.848;25.468;2022-08-21T20:18:03;95460.91;;;20.19;100.00
37068;BME280;22982;42.848;25.468;2022-08-21T20:23:07;95466.06;;;20.13;100.00
37068;BME280;22982;42.848;25.468;2022-08-21T20:28:12;95469.16;;;19.68;100.00
37068;BME280;22982;42.848;25.468;2022-08-21T20:33:14;95488.09;;;19.90;100.00
37068;BME280;22982;42.848;25.468;2022-08-21T20:38:18;95491.91;;;19.96;100.00
37068;BME280;22982;42.848;25.468;2022-08-21T20:43:21;95485.31;;;19.75;100.00
37068;BME280;22982;42.848;25.468;2022-08-21T20:48:33;95481.81;;;19.83;100.00
37068;BME280;22982;42.848;25.468;2022-08-21T21:10:24;95490.59;;;19.01;100.00
37068;BME280;22982;42.848;25.468;2022-08-21T21:15:31;95515.00;;;19.05;100.00
37068;BME280;22982;42.848;25.468;2022-08-21T21:20:45;95517.69;;;19.29;100.00
37068;BME280;22982;42.848;25.468;2022-08-21T21:26:08;95510.34;;;19.15;100.00
37068;BME280;22982;42.848;25.468;2022-08-21T21:31:16;95530.81;;;19.31;100.00
37068;BME280;22982;42.848;25.468;2022-08-21T21:36:29;95533.47;;;19.31;100.00
37068;BME280;22982;42.848;25.468;2022-08-21T21:47:03;95536.31;;;19.54;100.00
37068;BME280;22982;42.848;25.468;2022-08-21T21:52:39;95540.00;;;19.53;100.00
37068;BME280;22982;42.848;25.468;2022-08-21T22:03:14;95539.97;;;19.69;100.00
37068;BME280;22982;42.848;25.468;2022-08-21T22:08:46;95554.09;;;19.62;100.00
37068;BME280;22982;42.848;25.468;2022-08-21T22:14:02;95556.06;;;19.27;100.00
37068;BME280;22982;42.848;25.468;2022-08-21T22:19:21;95545.22;;;19.04;100.00
37068;BME280;22982;42.848;25.468;2022-08-21T22:24:28;95552.56;;;19.35;100.00
37068;BME280;22982;42.848;25.468;2022-08-21T22:29:46;95551.72;;;19.18;100.00
37068;BME280;22982;42.848;25.468;2022-08-21T22:35:23;95546.19;;;18.94;100.00
37068;BME280;22982;42.848;25.468;2022-08-21T22:40:32;95552.22;;;19.13;100.00
37068;BME280;22982;42.848;25.468;2022-08-21T22:56:09;95537.41;;;18.94;100.00
37068;BME280;22982;42.848;25.468;2022-08-21T23:01:33;95541.53;;;18.88;100.00
37068;BME280;22982;42.848;25.468;2022-08-21T23:06:45;95534.09;;;19.00;100.00
37068;BME280;22982;42.848;25.468;2022-08-21T23:11:55;95554.47;;;18.91;100.00
37068;BME280;22982;42.848;25.468;2022-08-21T23:22:23;95545.91;;;19.14;100.00
37068;BME280;22982;42.848;25.468;2022-08-21T23:38:26;95525.09;;;18.85;100.00
